SAWG/RGL METAR and TAF weather

Enter ICAO airport designator
Station Type Date Time Source
SAWG METAR 2020/04/03 06:00 UTC NOAA

SAWG 030600Z 23005KT CAVOK 08/04 Q1002


Station Type Date Time Source
SAWG Decoded METAR 2020/04/03 06:00 UTC NOAA

Rio Gallegos Aerodrome, Argentina (SAWG) 51-37S 069-17W 19M
Apr 03, 2020 - 02:00 AM EDT / 2020.04.03 0600 UTC
Wind: from the SW (230 degrees) at 6 MPH (5 KT):0
Visibility: greater than 7 mile(s):0
Temperature: 46 F (8 C)
Dew Point: 39 F (4 C)
Relative Humidity: 75%
Pressure (altimeter): 29.59 in. Hg (1002 hPa)
ob: SAWG 030600Z 23005KT CAVOK 08/04 Q1002
cycle: 6

Station Type Date Time Source
SAWG TAF 2020/04/03 06:12 UTC NOAA

TAF SAWG 030500Z 0306/0406 29010KT 9999 FEW030 TX11/0319Z TN01/0406Z
TEMPO 0307/0311 5000 MIFG DZ SCT015
BECMG 0314/0316 7000 RADZ SCT025 OVC035
BECMG 0319/0321 27015G25KT 90000 -DZ BKN030
BECMG 0402/0404 32015KT 9999 NSW SCT030

Example: see airport list